»·PEaware :: N425PK KDHT-KAMA

N425PK :: KDHT-KAMA

FLIGHT INFORMATION

Flight Status: Arrived
Operator: Privately registered:
United States
More flights under this callsign
Pilot: Steve K. (2395)
Aircraft: CESSNA 172 SKYHAWK
(C172)
More flights by this aircraft type
Origin: KDHT Dalhart Mun
United States
Destination: KAMA Amarillo Intl
United States
More flights between these airports :: More routes between these airports
Route: DHT EXELL AMA
File this flight plan on PilotEdge
Remarks: I heart PE
Altitude:
(Current/Filed)
7,000ft
Speed:
(Current/Filed)
115kts
Departed: 10-Sep-17 11:46 AM
Arrived: 10-Sep-17 12:24 PM
Distance/Time
Traveled:
63nm/0:38
Distance/Time
To Go:
Arrived

Flight Plot

Page will automatically refresh every two minutes.

Flight plan parsing failed; only flown route is shown


Map Options




Map Legend


Flown Route
Filed Route
Departure Airport
Arrival Airport
Navaid (VOR, NDB)
Fix

Horizontal Profiles

Position Reports

Time Latitude Longitude Heading Altitude Ground
Speed
10-Sep-17 11:45 36.031086 -102.547151 92 3989ft 0kts
10-Sep-17 11:46 36.031086 -102.547151 92 3989ft 0kts
10-Sep-17 11:47 36.031086 -102.547151 92 3989ft 0kts
10-Sep-17 11:48 36.031086 -102.547151 92 3989ft 0kts
10-Sep-17 11:49 36.031086 -102.547151 92 3989ft 0kts
10-Sep-17 11:50 36.027928 -102.546401 187 3987ft 58kts
10-Sep-17 11:51 36.008756 -102.544485 183 4658ft 72kts
10-Sep-17 11:52 35.991147 -102.538072 106 5398ft 88kts
10-Sep-17 11:53 35.981808 -102.507905 131 5912ft 95kts
10-Sep-17 11:54 35.965690 -102.482710 139 6514ft 92kts
10-Sep-17 11:55 35.948200 -102.459764 141 6999ft 101kts
10-Sep-17 11:56 35.928000 -102.434966 142 6979ft 99kts
10-Sep-17 11:57 35.908483 -102.411584 142 6979ft 97kts
10-Sep-17 11:58 35.889075 -102.388501 143 6978ft 96kts
10-Sep-17 11:59 35.869711 -102.365608 142 6976ft 96kts
10-Sep-17 12:00 35.850269 -102.342611 142 6974ft 97kts
10-Sep-17 12:01 35.830809 -102.319633 142 6973ft 97kts
10-Sep-17 12:02 35.811307 -102.296639 142 6971ft 97kts
10-Sep-17 12:03 35.791808 -102.273651 142 6969ft 97kts
10-Sep-17 12:04 35.771414 -102.249681 141 6971ft 107kts
10-Sep-17 12:05 35.749364 -102.223718 141 6967ft 111kts
10-Sep-17 12:06 35.727020 -102.197404 141 6966ft 111kts
10-Sep-17 12:07 35.704510 -102.170960 141 6967ft 113kts
10-Sep-17 12:08 35.681665 -102.144117 141 6966ft 113kts
10-Sep-17 12:09 35.658773 -102.117274 141 6966ft 113kts
10-Sep-17 12:10 35.635571 -102.090943 144 6966ft 113kts
10-Sep-17 12:11 35.611159 -102.066784 146 6966ft 113kts
10-Sep-17 12:12 35.586560 -102.042764 145 6966ft 113kts
10-Sep-17 12:13 35.562100 -102.018738 145 6966ft 113kts
10-Sep-17 12:14 35.537637 -101.994688 145 6966ft 113kts
10-Sep-17 12:15 35.513170 -101.970635 145 6970ft 112kts
10-Sep-17 12:16 35.488753 -101.946649 145 6975ft 112kts
10-Sep-17 12:17 35.464409 -101.922756 145 6981ft 111kts
10-Sep-17 12:18 35.440223 -101.899039 145 6985ft 111kts
10-Sep-17 12:19 35.416072 -101.875373 145 6988ft 111kts
10-Sep-17 12:20 35.391815 -101.852195 146 6991ft 110kts
10-Sep-17 12:21 35.368826 -101.825771 140 6825ft 116kts
10-Sep-17 12:22 35.345490 -101.797998 140 6528ft 117kts
10-Sep-17 12:23 35.326330 -101.774396 137 6277ft 118kts
10-Sep-17 12:24 35.304250 -101.744879 136 5782ft 117kts
10-Sep-17 12:25 35.283199 -101.716811 139 5249ft 104kts
10-Sep-17 12:26 35.261916 -101.697147 154 4563ft 93kts
10-Sep-17 12:27 35.239384 -101.691621 200 4023ft 77kts
10-Sep-17 12:28 35.226713 -101.705268 227 3610ft 38kts
10-Sep-17 12:29 35.222629 -101.704042 137 3610ft 19kts
10-Sep-17 12:30 35.220099 -101.701807 357 3610ft 0kts
10-Sep-17 12:31 35.220100 -101.701807 357 3610ft 0kts
10-Sep-17 12:32 35.220100 -101.701807 357 3610ft 0kts
10-Sep-17 12:33 35.220100 -101.701807 357 3610ft 0kts
10-Sep-17 12:34 35.220100 -101.701807 357 3610ft 0kts
10-Sep-17 12:35 35.220100 -101.701807 357 3610ft 0kts
10-Sep-17 12:36 35.220100 -101.701807 357 3610ft 0kts

Navigation Log

Ident Type
Flight plan parsing failed, navigation log unavailable